CheckWX is a tool to help pilots better visualize weather data.  It is not intended as a substitute for an official pre-flight weather briefing.

02:57:17 UTC

KHDC METAR
Hammond Northshore Regional Airport
Hammond, Louisiana, USA
Current

22 mins ago

KHDC 050235Z AUTO 00000KT 10SM CLR 23/22 A2988 RMK AO2
Observed
Jul-5 @ 02:35 UTC
Visibility
10 SM
Flight Rules
VFR
Cloud Levels
  • Clear skies
Temperature
23°C / 73°F
Dewpoint
22°C / 72°F
Humidity
94%
Altimeter
29.88" Hg
Pressure
1011.82 hPa
Previous

42 mins ago

KHDC 050215Z AUTO 00000KT 10SM CLR 23/22 A2988 RMK AO2
Observed
Jul-5 @ 02:15 UTC
Visibility
10 SM
Flight Rules
VFR
Cloud Levels
  • Clear skies
Temperature
23°C / 73°F
Dewpoint
22°C / 72°F
Humidity
94%
Altimeter
29.88" Hg
Pressure
1011.82 hPa
Previous

1 hour ago

KHDC 050155Z AUTO 00000KT 10SM CLR 23/22 A2988 RMK AO2
Observed
Jul-5 @ 01:55 UTC
Visibility
10 SM
Flight Rules
VFR
Cloud Levels
  • Clear skies
Temperature
23°C / 73°F
Dewpoint
22°C / 72°F
Humidity
94%
Altimeter
29.88" Hg
Pressure
1011.82 hPa